PWSweather.com
Personal Weather Stations
Station Observations
WISCHPK61
Green Bay Schmitt Park, Green Bay, WI 54311

Green Bay Schmitt ParkGreen Bay, WI 54311

Lat: 44.514277, Lon: -87.935067

Elevation: 735

Station Type: Acu Rite Pro Weather Center model 02032C

http://greenbayweathercam.com

High Low Average
Temperature 24.3°F-4.3°C 18.1°F-7.7°C 20.3°F-6.5°C
Dew Point 24.1°F-4.4°C 14.0°F-10.0°C 19.0°F-7.2°C
Winds Calm Calm Calm Calm Calm WCalm W
Wind Gusts -- -- --
Humidity 99% 72% 95%
Pressure 29.23 in989.8 mb 28.98 in981.4 mb -
Precipitation 0.00 in0.0 mm - -
Hour Temp Dew Point Humidity Winds Wind Gusts Pressure Precip Precip Rate Daily Precip Total
12:00 AM 19.4°F-7.0°C 19.2°F-7.1°C 99% Calm Calm -- 29.23 in989.8 mb - 0.00 in0.0 mm 0.00 in0.0 mm
01:00 AM 19.4°F-7.0°C 19.2°F-7.1°C 99% Calm Calm -- 29.21 in989.2 mb - 0.00 in0.0 mm 0.00 in0.0 mm
02:00 AM 19.6°F-6.9°C 19.4°F-7.0°C 99% Calm Calm -- 29.22 in989.5 mb - 0.00 in0.0 mm 0.00 in0.0 mm
03:00 AM 19.2°F-7.1°C 14.0°F-10.0°C 80% Calm Calm -- 29.16 in987.5 mb - 0.00 in0.0 mm 0.00 in0.0 mm
04:00 AM 18.9°F-7.3°C 14.3°F-9.8°C 82% Calm Calm -- 29.13 in986.5 mb - 0.00 in0.0 mm 0.00 in0.0 mm
05:00 AM 19.0°F-7.2°C 18.8°F-7.3°C 99% Calm Calm -- 29.14 in986.8 mb - 0.00 in0.0 mm 0.00 in0.0 mm
06:00 AM 18.7°F-7.4°C 18.5°F-7.5°C 99% Calm Calm -- 29.11 in985.8 mb - 0.00 in0.0 mm 0.00 in0.0 mm
07:00 AM 18.5°F-7.5°C 18.3°F-7.6°C 99% Calm Calm -- 29.10 in985.4 mb - 0.00 in0.0 mm 0.00 in0.0 mm
08:00 AM 18.3°F-7.6°C 18.1°F-7.7°C 99% Calm Calm -- 29.09 in985.1 mb - 0.00 in0.0 mm 0.00 in0.0 mm
09:00 AM 18.5°F-7.5°C 18.3°F-7.6°C 99% Calm Calm -- 29.07 in984.4 mb - 0.00 in0.0 mm 0.00 in0.0 mm
10:00 AM 18.9°F-7.3°C 18.7°F-7.4°C 99% Calm Calm -- 29.05 in983.7 mb - 0.00 in0.0 mm 0.00 in0.0 mm
11:00 AM 21.4°F-5.9°C 21.2°F-6.0°C 99% Calm Calm -- 29.04 in983.4 mb - 0.00 in0.0 mm 0.00 in0.0 mm
12:00 PM 21.9°F-5.6°C 21.7°F-5.7°C 99% Calm Calm -- 29.02 in982.7 mb - 0.00 in0.0 mm 0.00 in0.0 mm
01:00 PM 23.0°F-5.0°C 22.8°F-5.1°C 99% Calm Calm -- 28.98 in981.4 mb - 0.00 in0.0 mm 0.00 in0.0 mm
02:00 PM 23.0°F-5.0°C 18.6°F-7.4°C 83% Calm Calm -- 28.99 in981.7 mb - 0.00 in0.0 mm 0.00 in0.0 mm
03:00 PM 24.3°F-4.3°C 24.1°F-4.4°C 99% Calm Calm -- 29.01 in982.4 mb - 0.00 in0.0 mm 0.00 in0.0 mm
04:00 PM 22.8°F-5.1°C 15.1°F-9.4°C 72% Calm Calm -- 29.01 in982.4 mb - 0.00 in0.0 mm 0.00 in0.0 mm
05:00 PM 20.9°F-6.2°C 20.6°F-6.3°C 99% Calm Calm -- 29.02 in982.7 mb - 0.00 in0.0 mm 0.00 in0.0 mm
06:00 PM 20.7°F-6.3°C 20.5°F-6.4°C 99% Calm Calm -- 29.04 in983.4 mb - 0.00 in0.0 mm 0.00 in0.0 mm
07:00 PM 21.0°F-6.1°C 20.8°F-6.2°C 99% Calm Calm -- 29.05 in983.7 mb - 0.00 in0.0 mm 0.00 in0.0 mm
08:00 PM 20.8°F-6.2°C 20.6°F-6.3°C 99% Calm Calm -- 29.05 in983.7 mb - 0.00 in0.0 mm 0.00 in0.0 mm
09:00 PM 20.5°F-6.4°C 20.3°F-6.5°C 99% Calm Calm -- 29.07 in984.4 mb - 0.00 in0.0 mm 0.00 in0.0 mm
10:00 PM 19.8°F-6.8°C 15.2°F-9.3°C 82% Calm Calm -- 29.07 in984.4 mb - 0.00 in0.0 mm 0.00 in0.0 mm
11:00 PM 18.1°F-7.7°C 17.9°F-7.8°C 99% Calm Calm -- 29.07 in984.4 mb - 0.00 in0.0 mm 0.00 in0.0 mm